createdAt,value
2019-04-03T05:50:47.011Z,17.73
2019-04-03T05:53:16.237Z,17.50
2019-04-03T05:55:45.660Z,18.13
2019-04-03T05:58:16.275Z,18.20
2019-04-03T06:00:46.038Z,17.93
2019-04-03T06:03:15.242Z,19.27
2019-04-03T06:05:44.698Z,17.20
2019-04-03T06:08:14.143Z,18.13
2019-04-03T06:10:43.381Z,17.73
2019-04-03T06:13:12.525Z,18.43
2019-04-03T06:15:41.777Z,17.90
2019-04-03T06:18:10.983Z,18.13
2019-04-03T06:20:42.516Z,18.53
2019-04-03T06:23:10.946Z,17.57
2019-04-03T06:25:40.042Z,17.50
2019-04-03T06:28:09.273Z,17.70
2019-04-03T06:30:38.471Z,17.97
2019-04-03T06:33:07.636Z,18.77
2019-04-03T06:35:36.944Z,20.33
2019-04-03T06:38:06.167Z,19.20
2019-04-03T06:40:35.942Z,20.07
2019-04-03T06:43:05.594Z,19.47
2019-04-03T06:45:34.786Z,19.43
2019-04-03T06:48:05.141Z,20.27
2019-04-03T06:50:34.740Z,19.97
2019-04-03T06:53:04.025Z,18.97
2019-04-03T06:55:35.120Z,19.60
2019-04-03T06:58:06.528Z,19.70
2019-04-03T07:00:35.893Z,21.03
2019-04-03T07:03:05.348Z,21.57
2019-04-03T07:05:34.629Z,22.00
2019-04-03T07:08:05.041Z,22.77
2019-04-03T07:10:37.009Z,24.07
2019-04-03T07:13:16.409Z,24.63
2019-04-03T07:15:45.962Z,25.17
2019-04-03T07:18:15.026Z,25.83
2019-04-03T07:20:44.346Z,23.87
2019-04-03T07:23:13.726Z,23.77
2019-04-03T07:25:43.286Z,26.23
2019-04-03T07:28:12.385Z,24.47
2019-04-03T07:30:42.080Z,25.27
2019-04-03T07:33:11.358Z,24.80
2019-04-03T07:35:40.659Z,25.03
2019-04-03T07:38:09.870Z,26.43
2019-04-03T07:40:38.921Z,23.87
2019-04-03T07:43:08.269Z,25.30
2019-04-03T07:45:37.441Z,26.27
2019-04-03T07:48:07.076Z,26.17
2019-04-03T07:50:37.127Z,27.23
2019-04-03T07:53:06.731Z,25.10
2019-04-03T07:55:35.856Z,28.77
2019-04-03T07:58:05.038Z,24.00
2019-04-03T08:00:34.441Z,24.57
2019-04-03T08:03:03.579Z,23.90
2019-04-03T08:09:13.522Z,24.50
2019-04-03T08:11:42.827Z,24.33
2019-04-03T08:14:12.358Z,23.30
2019-04-03T08:16:43.108Z,21.97
2019-04-03T08:19:13.182Z,23.47
2019-04-03T08:21:42.347Z,22.80
2019-04-03T08:24:11.866Z,22.70
2019-04-03T08:30:14.612Z,21.83
2019-04-03T08:32:44.076Z,23.27
2019-04-03T08:35:22.391Z,22.47
